sensor_id;sensor_type;location;lat;lon;timestamp;P1;durP1;ratioP1;P2;durP2;ratioP2
3789;SDS011;1910;49.042;9.028;2022-08-04T00:01:12;4.90;;;4.13;;
3789;SDS011;1910;49.042;9.028;2022-08-04T00:04:21;3.47;;;2.47;;
3789;SDS011;1910;49.042;9.028;2022-08-04T00:09:32;6.67;;;3.10;;
3789;SDS011;1910;49.042;9.028;2022-08-04T00:12:05;4.93;;;3.00;;
3789;SDS011;1910;49.042;9.028;2022-08-04T00:14:35;5.73;;;3.30;;
3789;SDS011;1910;49.042;9.028;2022-08-04T00:17:05;3.23;;;2.47;;
3789;SDS011;1910;49.042;9.028;2022-08-04T00:19:31;4.93;;;2.57;;
3789;SDS011;1910;49.042;9.028;2022-08-04T00:22:20;2.37;;;2.17;;
3789;SDS011;1910;49.042;9.028;2022-08-04T00:24:50;2.60;;;2.20;;
3789;SDS011;1910;49.042;9.028;2022-08-04T00:27:16;3.60;;;1.70;;
3789;SDS011;1910;49.042;9.028;2022-08-04T00:29:42;2.63;;;2.23;;
3789;SDS011;1910;49.042;9.028;2022-08-04T00:32:10;6.30;;;2.63;;
3789;SDS011;1910;49.042;9.028;2022-08-04T00:34:36;2.33;;;2.00;;
3789;SDS011;1910;49.042;9.028;2022-08-04T00:37:03;2.80;;;1.63;;
3789;SDS011;1910;49.042;9.028;2022-08-04T00:39:30;5.07;;;2.10;;
3789;SDS011;1910;49.042;9.028;2022-08-04T00:42:22;4.80;;;2.87;;
3789;SDS011;1910;49.042;9.028;2022-08-04T00:50:44;4.50;;;2.80;;
3789;SDS011;1910;49.042;9.028;2022-08-04T00:53:35;5.30;;;3.00;;
3789;SDS011;1910;49.042;9.028;2022-08-04T00:56:31;5.00;;;2.50;;
3789;SDS011;1910;49.042;9.028;2022-08-04T01:02:38;3.07;;;2.47;;
3789;SDS011;1910;49.042;9.028;2022-08-04T01:11:41;2.57;;;2.30;;
3789;SDS011;1910;49.042;9.028;2022-08-04T01:14:21;4.80;;;2.30;;
3789;SDS011;1910;49.042;9.028;2022-08-04T01:19:58;5.80;;;2.73;;
3789;SDS011;1910;49.042;9.028;2022-08-04T01:30:47;4.67;;;2.27;;
3789;SDS011;1910;49.042;9.028;2022-08-04T01:33:16;2.70;;;2.50;;
3789;SDS011;1910;49.042;9.028;2022-08-04T01:35:46;7.87;;;3.00;;
3789;SDS011;1910;49.042;9.028;2022-08-04T01:38:25;8.10;;;4.03;;
3789;SDS011;1910;49.042;9.028;2022-08-04T01:40:55;5.20;;;2.93;;
3789;SDS011;1910;49.042;9.028;2022-08-04T01:43:23;6.70;;;3.03;;
3789;SDS011;1910;49.042;9.028;2022-08-04T01:45:55;3.67;;;3.23;;
3789;SDS011;1910;49.042;9.028;2022-08-04T01:48:23;5.10;;;3.47;;
3789;SDS011;1910;49.042;9.028;2022-08-04T01:56:00;4.13;;;2.73;;
3789;SDS011;1910;49.042;9.028;2022-08-04T01:58:30;3.73;;;2.50;;
3789;SDS011;1910;49.042;9.028;2022-08-04T02:00:59;4.43;;;2.70;;
3789;SDS011;1910;49.042;9.028;2022-08-04T02:03:30;3.13;;;2.30;;
3789;SDS011;1910;49.042;9.028;2022-08-04T02:06:16;2.77;;;2.47;;
3789;SDS011;1910;49.042;9.028;2022-08-04T02:11:40;2.70;;;2.30;;
3789;SDS011;1910;49.042;9.028;2022-08-04T02:14:17;6.47;;;2.47;;
3789;SDS011;1910;49.042;9.028;2022-08-04T02:17:14;4.80;;;2.27;;
3789;SDS011;1910;49.042;9.028;2022-08-04T02:22:26;3.23;;;2.40;;
3789;SDS011;1910;49.042;9.028;2022-08-04T02:25:02;3.83;;;2.43;;
3789;SDS011;1910;49.042;9.028;2022-08-04T02:27:34;2.17;;;1.97;;
3789;SDS011;1910;49.042;9.028;2022-08-04T02:30:25;3.00;;;2.27;;
3789;SDS011;1910;49.042;9.028;2022-08-04T02:32:57;7.00;;;2.17;;
3789;SDS011;1910;49.042;9.028;2022-08-04T02:35:28;2.70;;;2.00;;
3789;SDS011;1910;49.042;9.028;2022-08-04T02:38:05;2.07;;;1.77;;
3789;SDS011;1910;49.042;9.028;2022-08-04T02:40:47;5.20;;;2.17;;
3789;SDS011;1910;49.042;9.028;2022-08-04T02:43:15;5.03;;;2.77;;
3789;SDS011;1910;49.042;9.028;2022-08-04T02:45:44;2.90;;;1.80;;
3789;SDS011;1910;49.042;9.028;2022-08-04T02:48:11;3.23;;;2.53;;
3789;SDS011;1910;49.042;9.028;2022-08-04T02:50:39;4.03;;;2.43;;
3789;SDS011;1910;49.042;9.028;2022-08-04T02:53:07;7.80;;;2.97;;
3789;SDS011;1910;49.042;9.028;2022-08-04T02:55:39;4.80;;;2.30;;
3789;SDS011;1910;49.042;9.028;2022-08-04T02:58:08;4.00;;;2.57;;
3789;SDS011;1910;49.042;9.028;2022-08-04T03:00:36;3.00;;;2.67;;
3789;SDS011;1910;49.042;9.028;2022-08-04T03:05:44;4.67;;;2.63;;
3789;SDS011;1910;49.042;9.028;2022-08-04T03:11:23;6.80;;;2.70;;
3789;SDS011;1910;49.042;9.028;2022-08-04T03:14:03;6.10;;;3.00;;
3789;SDS011;1910;49.042;9.028;2022-08-04T03:17:11;4.10;;;2.40;;
3789;SDS011;1910;49.042;9.028;2022-08-04T03:39:23;2.60;;;2.40;;
3789;SDS011;1910;49.042;9.028;2022-08-04T03:53:42;6.20;;;2.60;;
3789;SDS011;1910;49.042;9.028;2022-08-04T03:56:38;3.37;;;2.23;;
3789;SDS011;1910;49.042;9.028;2022-08-04T04:16:17;3.77;;;2.20;;
3789;SDS011;1910;49.042;9.028;2022-08-04T04:37:58;4.00;;;3.17;;
3789;SDS011;1910;49.042;9.028;2022-08-04T04:40:33;4.73;;;2.70;;
3789;SDS011;1910;49.042;9.028;2022-08-04T04:45:46;6.40;;;3.07;;
3789;SDS011;1910;49.042;9.028;2022-08-04T04:56:44;6.83;;;2.73;;
3789;SDS011;1910;49.042;9.028;2022-08-04T04:59:16;12.03;;;2.63;;
3789;SDS011;1910;49.042;9.028;2022-08-04T05:13:41;3.90;;;3.60;;
3789;SDS011;1910;49.042;9.028;2022-08-04T05:16:30;5.80;;;4.80;;
3789;SDS011;1910;49.042;9.028;2022-08-04T05:21:38;6.17;;;5.47;;
3789;SDS011;1910;49.042;9.028;2022-08-04T05:24:17;6.90;;;6.33;;
3789;SDS011;1910;49.042;9.028;2022-08-04T05:26:46;7.73;;;7.03;;
3789;SDS011;1910;49.042;9.028;2022-08-04T05:29:19;10.60;;;6.97;;
3789;SDS011;1910;49.042;9.028;2022-08-04T05:32:00;15.17;;;7.53;;
3789;SDS011;1910;49.042;9.028;2022-08-04T05:34:32;9.77;;;8.87;;
3789;SDS011;1910;49.042;9.028;2022-08-04T05:37:06;9.30;;;8.67;;
3789;SDS011;1910;49.042;9.028;2022-08-04T05:39:38;8.47;;;7.87;;
3789;SDS011;1910;49.042;9.028;2022-08-04T05:42:11;9.67;;;9.00;;
3789;SDS011;1910;49.042;9.028;2022-08-04T05:44:38;10.33;;;9.63;;
3789;SDS011;1910;49.042;9.028;2022-08-04T05:47:04;11.37;;;10.57;;
3789;SDS011;1910;49.042;9.028;2022-08-04T05:49:31;12.47;;;11.37;;
3789;SDS011;1910;49.042;9.028;2022-08-04T05:52:01;12.30;;;11.60;;
3789;SDS011;1910;49.042;9.028;2022-08-04T05:54:29;11.37;;;10.57;;
3789;SDS011;1910;49.042;9.028;2022-08-04T05:56:57;11.00;;;10.10;;
3789;SDS011;1910;49.042;9.028;2022-08-04T05:59:23;13.33;;;12.13;;
3789;SDS011;1910;49.042;9.028;2022-08-04T06:01:51;12.70;;;12.10;;
3789;SDS011;1910;49.042;9.028;2022-08-04T06:04:20;13.17;;;12.10;;
3789;SDS011;1910;49.042;9.028;2022-08-04T06:06:48;12.37;;;11.67;;
3789;SDS011;1910;49.042;9.028;2022-08-04T06:09:15;13.00;;;12.20;;
3789;SDS011;1910;49.042;9.028;2022-08-04T06:11:40;12.87;;;11.70;;
3789;SDS011;1910;49.042;9.028;2022-08-04T06:14:09;13.93;;;12.90;;
3789;SDS011;1910;49.042;9.028;2022-08-04T06:16:38;12.43;;;11.70;;
3789;SDS011;1910;49.042;9.028;2022-08-04T06:19:07;12.70;;;12.00;;
3789;SDS011;1910;49.042;9.028;2022-08-04T06:21:36;13.97;;;12.83;;
3789;SDS011;1910;49.042;9.028;2022-08-04T06:24:04;11.83;;;11.13;;
3789;SDS011;1910;49.042;9.028;2022-08-04T06:26:34;14.60;;;11.00;;
3789;SDS011;1910;49.042;9.028;2022-08-04T06:29:01;11.73;;;10.77;;
3789;SDS011;1910;49.042;9.028;2022-08-04T06:31:28;12.50;;;11.90;;
3789;SDS011;1910;49.042;9.028;2022-08-04T06:34:07;13.03;;;12.07;;
3789;SDS011;1910;49.042;9.028;2022-08-04T06:36:35;12.97;;;12.37;;
3789;SDS011;1910;49.042;9.028;2022-08-04T06:39:03;14.87;;;14.07;;
3789;SDS011;1910;49.042;9.028;2022-08-04T06:41:29;16.53;;;15.50;;
3789;SDS011;1910;49.042;9.028;2022-08-04T06:44:04;18.53;;;17.43;;
3789;SDS011;1910;49.042;9.028;2022-08-04T06:46:37;18.40;;;17.60;;
3789;SDS011;1910;49.042;9.028;2022-08-04T06:49:05;19.40;;;18.20;;
3789;SDS011;1910;49.042;9.028;2022-08-04T06:51:32;20.07;;;18.87;;
3789;SDS011;1910;49.042;9.028;2022-08-04T06:54:00;20.93;;;19.83;;
3789;SDS011;1910;49.042;9.028;2022-08-04T06:56:25;24.57;;;23.57;;
3789;SDS011;1910;49.042;9.028;2022-08-04T06:58:53;22.73;;;21.53;;
3789;SDS011;1910;49.042;9.028;2022-08-04T07:01:20;20.63;;;19.63;;
3789;SDS011;1910;49.042;9.028;2022-08-04T07:03:47;20.10;;;19.20;;
3789;SDS011;1910;49.042;9.028;2022-08-04T07:06:13;19.23;;;18.43;;
3789;SDS011;1910;49.042;9.028;2022-08-04T07:08:38;22.83;;;21.63;;
3789;SDS011;1910;49.042;9.028;2022-08-04T07:11:04;17.87;;;17.17;;
3789;SDS011;1910;49.042;9.028;2022-08-04T07:13:31;16.90;;;15.93;;
3789;SDS011;1910;49.042;9.028;2022-08-04T07:15:57;16.63;;;15.57;;
3789;SDS011;1910;49.042;9.028;2022-08-04T07:18:24;15.50;;;14.70;;
3789;SDS011;1910;49.042;9.028;2022-08-04T07:20:49;15.93;;;15.03;;
3789;SDS011;1910;49.042;9.028;2022-08-04T07:23:16;15.60;;;14.90;;
3789;SDS011;1910;49.042;9.028;2022-08-04T07:25:50;16.93;;;16.23;;
3789;SDS011;1910;49.042;9.028;2022-08-04T07:28:22;15.07;;;14.10;;
3789;SDS011;1910;49.042;9.028;2022-08-04T07:30:52;15.03;;;13.90;;
3789;SDS011;1910;49.042;9.028;2022-08-04T07:33:19;16.33;;;15.20;;
3789;SDS011;1910;49.042;9.028;2022-08-04T07:35:47;17.83;;;16.80;;
3789;SDS011;1910;49.042;9.028;2022-08-04T07:38:15;17.03;;;15.77;;
3789;SDS011;1910;49.042;9.028;2022-08-04T07:40:41;16.73;;;15.83;;
3789;SDS011;1910;49.042;9.028;2022-08-04T07:43:07;14.93;;;14.23;;
3789;SDS011;1910;49.042;9.028;2022-08-04T07:45:33;16.00;;;15.30;;
3789;SDS011;1910;49.042;9.028;2022-08-04T07:47:59;16.40;;;15.70;;
3789;SDS011;1910;49.042;9.028;2022-08-04T07:50:25;18.33;;;17.33;;
3789;SDS011;1910;49.042;9.028;2022-08-04T07:52:52;19.03;;;18.23;;
3789;SDS011;1910;49.042;9.028;2022-08-04T07:55:18;18.23;;;17.33;;
3789;SDS011;1910;49.042;9.028;2022-08-04T07:57:45;20.90;;;18.87;;
3789;SDS011;1910;49.042;9.028;2022-08-04T08:00:11;18.07;;;16.87;;
3789;SDS011;1910;49.042;9.028;2022-08-04T08:02:38;20.57;;;19.47;;
3789;SDS011;1910;49.042;9.028;2022-08-04T08:05:06;20.27;;;19.27;;
3789;SDS011;1910;49.042;9.028;2022-08-04T08:07:34;22.70;;;21.33;;
3789;SDS011;1910;49.042;9.028;2022-08-04T08:10:00;18.97;;;18.10;;
3789;SDS011;1910;49.042;9.028;2022-08-04T08:12:25;21.17;;;20.27;;
3789;SDS011;1910;49.042;9.028;2022-08-04T08:14:52;19.73;;;18.53;;
3789;SDS011;1910;49.042;9.028;2022-08-04T08:17:19;19.77;;;18.70;;
3789;SDS011;1910;49.042;9.028;2022-08-04T08:19:44;19.67;;;18.77;;
3789;SDS011;1910;49.042;9.028;2022-08-04T08:22:10;20.80;;;19.13;;
3789;SDS011;1910;49.042;9.028;2022-08-04T08:24:36;16.73;;;15.93;;
3789;SDS011;1910;49.042;9.028;2022-08-04T08:27:02;19.97;;;19.07;;
3789;SDS011;1910;49.042;9.028;2022-08-04T08:29:28;17.20;;;16.40;;
3789;SDS011;1910;49.042;9.028;2022-08-04T08:31:56;20.40;;;19.30;;
3789;SDS011;1910;49.042;9.028;2022-08-04T08:34:24;20.67;;;19.47;;
3789;SDS011;1910;49.042;9.028;2022-08-04T08:36:56;17.97;;;16.87;;
3789;SDS011;1910;49.042;9.028;2022-08-04T08:39:34;18.73;;;17.70;;
3789;SDS011;1910;49.042;9.028;2022-08-04T08:47:34;17.47;;;16.43;;
3789;SDS011;1910;49.042;9.028;2022-08-04T08:52:51;16.03;;;15.00;;
3789;SDS011;1910;49.042;9.028;2022-08-04T09:01:39;22.73;;;21.60;;
3789;SDS011;1910;49.042;9.028;2022-08-04T09:15:16;30.00;;;27.83;;
3789;SDS011;1910;49.042;9.028;2022-08-04T09:20:28;26.60;;;25.60;;
3789;SDS011;1910;49.042;9.028;2022-08-04T09:25:41;29.07;;;27.57;;
3789;SDS011;1910;49.042;9.028;2022-08-04T09:28:22;27.77;;;26.33;;
3789;SDS011;1910;49.042;9.028;2022-08-04T09:31:02;29.13;;;27.73;;
3789;SDS011;1910;49.042;9.028;2022-08-04T09:33:38;30.47;;;29.20;;
3789;SDS011;1910;49.042;9.028;2022-08-04T09:36:28;28.97;;;27.67;;
3789;SDS011;1910;49.042;9.028;2022-08-04T09:42:11;29.50;;;27.83;;
3789;SDS011;1910;49.042;9.028;2022-08-04T09:47:32;26.23;;;24.83;;
3789;SDS011;1910;49.042;9.028;2022-08-04T09:50:33;23.17;;;22.07;;
3789;SDS011;1910;49.042;9.028;2022-08-04T09:58:23;29.77;;;28.00;;
3789;SDS011;1910;49.042;9.028;2022-08-04T10:00:59;30.53;;;29.03;;
3789;SDS011;1910;49.042;9.028;2022-08-04T10:03:28;29.97;;;28.60;;
3789;SDS011;1910;49.042;9.028;2022-08-04T10:17:20;27.83;;;26.33;;
3789;SDS011;1910;49.042;9.028;2022-08-04T10:22:53;27.60;;;26.30;;
3789;SDS011;1910;49.042;9.028;2022-08-04T10:28:02;27.03;;;25.57;;
3789;SDS011;1910;49.042;9.028;2022-08-04T10:30:30;29.23;;;27.60;;
3789;SDS011;1910;49.042;9.028;2022-08-04T10:33:02;26.83;;;25.63;;
3789;SDS011;1910;49.042;9.028;2022-08-04T10:35:45;13.40;;;12.70;;
3789;SDS011;1910;49.042;9.028;2022-08-04T10:41:00;22.90;;;21.80;;
3789;SDS011;1910;49.042;9.028;2022-08-04T10:46:35;14.13;;;13.40;;
3789;SDS011;1910;49.042;9.028;2022-08-04T10:49:09;14.00;;;13.17;;
3789;SDS011;1910;49.042;9.028;2022-08-04T10:54:12;13.13;;;12.10;;
3789;SDS011;1910;49.042;9.028;2022-08-04T10:57:01;11.30;;;10.70;;
3789;SDS011;1910;49.042;9.028;2022-08-04T10:59:42;11.43;;;10.70;;
3789;SDS011;1910;49.042;9.028;2022-08-04T11:07:44;11.47;;;10.97;;
3789;SDS011;1910;49.042;9.028;2022-08-04T11:10:14;12.03;;;11.20;;
3789;SDS011;1910;49.042;9.028;2022-08-04T11:12:44;11.27;;;10.63;;
3789;SDS011;1910;49.042;9.028;2022-08-04T11:15:20;11.13;;;10.43;;
3789;SDS011;1910;49.042;9.028;2022-08-04T11:17:52;11.20;;;10.47;;
3789;SDS011;1910;49.042;9.028;2022-08-04T11:23:03;10.90;;;10.23;;
3789;SDS011;1910;49.042;9.028;2022-08-04T11:25:31;10.20;;;9.40;;
3789;SDS011;1910;49.042;9.028;2022-08-04T11:28:13;10.70;;;10.17;;
3789;SDS011;1910;49.042;9.028;2022-08-04T11:30:52;10.13;;;9.53;;
3789;SDS011;1910;49.042;9.028;2022-08-04T11:33:35;11.77;;;10.90;;
3789;SDS011;1910;49.042;9.028;2022-08-04T11:36:02;9.73;;;9.23;;
3789;SDS011;1910;49.042;9.028;2022-08-04T11:41:35;10.60;;;10.00;;
3789;SDS011;1910;49.042;9.028;2022-08-04T11:44:33;10.53;;;9.93;;
3789;SDS011;1910;49.042;9.028;2022-08-04T11:47:20;10.07;;;9.43;;
3789;SDS011;1910;49.042;9.028;2022-08-04T11:52:52;10.20;;;9.60;;
3789;SDS011;1910;49.042;9.028;2022-08-04T11:55:20;9.90;;;9.40;;
3789;SDS011;1910;49.042;9.028;2022-08-04T11:57:49;9.70;;;9.30;;
3789;SDS011;1910;49.042;9.028;2022-08-04T12:00:15;9.43;;;8.90;;
3789;SDS011;1910;49.042;9.028;2022-08-04T12:06:24;10.37;;;9.50;;
3789;SDS011;1910;49.042;9.028;2022-08-04T12:11:27;10.53;;;9.87;;
3789;SDS011;1910;49.042;9.028;2022-08-04T12:14:21;10.80;;;10.30;;
3789;SDS011;1910;49.042;9.028;2022-08-04T12:17:14;10.50;;;10.00;;
3789;SDS011;1910;49.042;9.028;2022-08-04T12:20:00;11.23;;;10.73;;
3789;SDS011;1910;49.042;9.028;2022-08-04T12:22:31;11.37;;;10.70;;
3789;SDS011;1910;49.042;9.028;2022-08-04T12:25:05;11.63;;;10.63;;
3789;SDS011;1910;49.042;9.028;2022-08-04T12:27:35;10.80;;;10.30;;
3789;SDS011;1910;49.042;9.028;2022-08-04T12:30:05;10.70;;;10.20;;
3789;SDS011;1910;49.042;9.028;2022-08-04T12:32:40;10.20;;;9.60;;
3789;SDS011;1910;49.042;9.028;2022-08-04T12:35:18;10.57;;;10.07;;
3789;SDS011;1910;49.042;9.028;2022-08-04T12:37:52;10.47;;;9.90;;
3789;SDS011;1910;49.042;9.028;2022-08-04T12:40:28;10.67;;;10.17;;
3789;SDS011;1910;49.042;9.028;2022-08-04T12:43:34;10.80;;;10.20;;
3789;SDS011;1910;49.042;9.028;2022-08-04T12:46:22;10.37;;;9.73;;
3789;SDS011;1910;49.042;9.028;2022-08-04T12:48:50;11.57;;;10.63;;
3789;SDS011;1910;49.042;9.028;2022-08-04T12:51:16;11.00;;;10.37;;
3789;SDS011;1910;49.042;9.028;2022-08-04T12:53:44;10.40;;;9.90;;
3789;SDS011;1910;49.042;9.028;2022-08-04T12:56:13;11.20;;;10.70;;
3789;SDS011;1910;49.042;9.028;2022-08-04T12:58:41;10.33;;;9.83;;
3789;SDS011;1910;49.042;9.028;2022-08-04T13:01:13;10.00;;;9.40;;
3789;SDS011;1910;49.042;9.028;2022-08-04T13:03:48;10.80;;;10.00;;
3789;SDS011;1910;49.042;9.028;2022-08-04T13:06:29;10.93;;;10.23;;
3789;SDS011;1910;49.042;9.028;2022-08-04T13:09:04;10.30;;;9.53;;
3789;SDS011;1910;49.042;9.028;2022-08-04T13:11:34;10.00;;;9.50;;
3789;SDS011;1910;49.042;9.028;2022-08-04T13:14:03;10.80;;;10.20;;
3789;SDS011;1910;49.042;9.028;2022-08-04T13:16:31;10.90;;;10.10;;
3789;SDS011;1910;49.042;9.028;2022-08-04T13:18:58;10.53;;;9.93;;
3789;SDS011;1910;49.042;9.028;2022-08-04T13:21:25;9.50;;;9.10;;
3789;SDS011;1910;49.042;9.028;2022-08-04T13:23:57;10.17;;;9.57;;
3789;SDS011;1910;49.042;9.028;2022-08-04T13:26:27;10.40;;;9.70;;
3789;SDS011;1910;49.042;9.028;2022-08-04T13:28:53;10.03;;;9.30;;
3789;SDS011;1910;49.042;9.028;2022-08-04T13:31:25;9.30;;;8.90;;
3789;SDS011;1910;49.042;9.028;2022-08-04T13:33:53;10.07;;;9.23;;
3789;SDS011;1910;49.042;9.028;2022-08-04T13:36:26;9.53;;;8.93;;
3789;SDS011;1910;49.042;9.028;2022-08-04T13:38:54;9.30;;;8.90;;
3789;SDS011;1910;49.042;9.028;2022-08-04T13:41:22;9.73;;;9.13;;
3789;SDS011;1910;49.042;9.028;2022-08-04T13:43:50;9.07;;;8.67;;
3789;SDS011;1910;49.042;9.028;2022-08-04T13:46:24;9.47;;;8.97;;
3789;SDS011;1910;49.042;9.028;2022-08-04T13:48:52;10.40;;;9.57;;
3789;SDS011;1910;49.042;9.028;2022-08-04T13:51:19;10.20;;;9.50;;
3789;SDS011;1910;49.042;9.028;2022-08-04T13:53:53;9.73;;;9.23;;
3789;SDS011;1910;49.042;9.028;2022-08-04T13:56:20;10.50;;;9.80;;
3789;SDS011;1910;49.042;9.028;2022-08-04T13:58:47;11.00;;;10.47;;
3789;SDS011;1910;49.042;9.028;2022-08-04T14:01:18;10.17;;;9.57;;
3789;SDS011;1910;49.042;9.028;2022-08-04T14:06:26;9.00;;;8.60;;
3789;SDS011;1910;49.042;9.028;2022-08-04T14:09:01;10.00;;;9.53;;
3789;SDS011;1910;49.042;9.028;2022-08-04T14:11:38;9.97;;;9.13;;
3789;SDS011;1910;49.042;9.028;2022-08-04T14:16:57;10.07;;;9.50;;
3789;SDS011;1910;49.042;9.028;2022-08-04T14:25:11;10.80;;;10.10;;
3789;SDS011;1910;49.042;9.028;2022-08-04T14:27:47;10.60;;;9.70;;
3789;SDS011;1910;49.042;9.028;2022-08-04T14:35:21;11.53;;;10.87;;
3789;SDS011;1910;49.042;9.028;2022-08-04T14:37:57;11.90;;;10.70;;
3789;SDS011;1910;49.042;9.028;2022-08-04T14:40:31;11.57;;;10.80;;
3789;SDS011;1910;49.042;9.028;2022-08-04T14:42:58;11.37;;;10.77;;
3789;SDS011;1910;49.042;9.028;2022-08-04T14:45:37;10.70;;;10.10;;
3789;SDS011;1910;49.042;9.028;2022-08-04T14:48:08;10.27;;;9.60;;
3789;SDS011;1910;49.042;9.028;2022-08-04T14:50:36;10.13;;;9.30;;
3789;SDS011;1910;49.042;9.028;2022-08-04T14:53:07;11.07;;;10.30;;
3789;SDS011;1910;49.042;9.028;2022-08-04T14:55:35;10.23;;;9.73;;
3789;SDS011;1910;49.042;9.028;2022-08-04T14:58:02;10.60;;;9.90;;
3789;SDS011;1910;49.042;9.028;2022-08-04T15:00:29;11.43;;;10.67;;
3789;SDS011;1910;49.042;9.028;2022-08-04T15:02:59;10.97;;;10.47;;
3789;SDS011;1910;49.042;9.028;2022-08-04T15:05:27;11.50;;;11.00;;
3789;SDS011;1910;49.042;9.028;2022-08-04T15:07:54;10.90;;;10.30;;
3789;SDS011;1910;49.042;9.028;2022-08-04T15:10:20;10.53;;;9.90;;
3789;SDS011;1910;49.042;9.028;2022-08-04T15:12:46;11.60;;;10.90;;
3789;SDS011;1910;49.042;9.028;2022-08-04T15:15:12;10.83;;;10.33;;
3789;SDS011;1910;49.042;9.028;2022-08-04T15:17:39;11.80;;;10.73;;
3789;SDS011;1910;49.042;9.028;2022-08-04T15:20:06;10.87;;;10.27;;
3789;SDS011;1910;49.042;9.028;2022-08-04T15:22:33;11.03;;;10.40;;
3789;SDS011;1910;49.042;9.028;2022-08-04T15:24:59;10.50;;;9.90;;
3789;SDS011;1910;49.042;9.028;2022-08-04T15:27:28;10.30;;;9.80;;
3789;SDS011;1910;49.042;9.028;2022-08-04T15:29:57;10.60;;;9.67;;
3789;SDS011;1910;49.042;9.028;2022-08-04T15:32:25;10.33;;;9.63;;
3789;SDS011;1910;49.042;9.028;2022-08-04T15:35:00;11.17;;;10.27;;
3789;SDS011;1910;49.042;9.028;2022-08-04T15:37:30;10.63;;;9.93;;
3789;SDS011;1910;49.042;9.028;2022-08-04T15:40:21;9.90;;;9.23;;
3789;SDS011;1910;49.042;9.028;2022-08-04T15:46:21;10.70;;;10.10;;
3789;SDS011;1910;49.042;9.028;2022-08-04T15:49:22;12.23;;;11.17;;
3789;SDS011;1910;49.042;9.028;2022-08-04T15:51:58;11.40;;;10.80;;
3789;SDS011;1910;49.042;9.028;2022-08-04T15:54:33;11.93;;;11.13;;
3789;SDS011;1910;49.042;9.028;2022-08-04T15:57:01;10.20;;;9.50;;
3789;SDS011;1910;49.042;9.028;2022-08-04T16:07:54;10.47;;;9.53;;
3789;SDS011;1910;49.042;9.028;2022-08-04T16:10:40;11.60;;;10.60;;
3789;SDS011;1910;49.042;9.028;2022-08-04T16:13:11;10.07;;;9.53;;
3789;SDS011;1910;49.042;9.028;2022-08-04T16:15:52;10.63;;;9.93;;
3789;SDS011;1910;49.042;9.028;2022-08-04T16:18:21;9.83;;;9.30;;
3789;SDS011;1910;49.042;9.028;2022-08-04T16:20:49;11.40;;;10.73;;
3789;SDS011;1910;49.042;9.028;2022-08-04T16:23:27;10.53;;;9.83;;
3789;SDS011;1910;49.042;9.028;2022-08-04T16:34:39;11.00;;;10.50;;
3789;SDS011;1910;49.042;9.028;2022-08-04T16:37:14;11.00;;;10.27;;
3789;SDS011;1910;49.042;9.028;2022-08-04T16:39:42;10.80;;;10.10;;
3789;SDS011;1910;49.042;9.028;2022-08-04T16:45:05;10.83;;;10.27;;
3789;SDS011;1910;49.042;9.028;2022-08-04T16:50:21;9.70;;;9.10;;
3789;SDS011;1910;49.042;9.028;2022-08-04T16:52:52;10.57;;;9.80;;
3789;SDS011;1910;49.042;9.028;2022-08-04T16:55:19;10.50;;;10.00;;
3789;SDS011;1910;49.042;9.028;2022-08-04T16:57:50;10.60;;;10.00;;
3789;SDS011;1910;49.042;9.028;2022-08-04T17:00:17;10.40;;;9.90;;
3789;SDS011;1910;49.042;9.028;2022-08-04T17:03:02;11.07;;;10.10;;
3789;SDS011;1910;49.042;9.028;2022-08-04T17:05:29;10.77;;;10.23;;
3789;SDS011;1910;49.042;9.028;2022-08-04T17:07:56;9.83;;;9.23;;
3789;SDS011;1910;49.042;9.028;2022-08-04T17:10:34;11.07;;;10.57;;
3789;SDS011;1910;49.042;9.028;2022-08-04T17:13:00;11.13;;;10.20;;
3789;SDS011;1910;49.042;9.028;2022-08-04T17:15:26;11.30;;;10.60;;
3789;SDS011;1910;49.042;9.028;2022-08-04T17:18:12;11.07;;;10.30;;
3789;SDS011;1910;49.042;9.028;2022-08-04T17:20:39;11.40;;;10.60;;
3789;SDS011;1910;49.042;9.028;2022-08-04T17:25:53;11.23;;;10.63;;
3789;SDS011;1910;49.042;9.028;2022-08-04T17:28:27;10.43;;;9.93;;
3789;SDS011;1910;49.042;9.028;2022-08-04T17:30:53;9.83;;;9.33;;
3789;SDS011;1910;49.042;9.028;2022-08-04T17:33:21;11.00;;;10.30;;
3789;SDS011;1910;49.042;9.028;2022-08-04T17:35:52;12.07;;;11.03;;
3789;SDS011;1910;49.042;9.028;2022-08-04T17:38:21;9.60;;;9.00;;
3789;SDS011;1910;49.042;9.028;2022-08-04T17:40:57;10.43;;;9.83;;
3789;SDS011;1910;49.042;9.028;2022-08-04T17:43:38;10.60;;;9.90;;
3789;SDS011;1910;49.042;9.028;2022-08-04T17:49:24;9.93;;;9.40;;
3789;SDS011;1910;49.042;9.028;2022-08-04T17:51:44;9.93;;;9.23;;
3789;SDS011;1910;49.042;9.028;2022-08-04T17:54:14;9.60;;;8.90;;
3789;SDS011;1910;49.042;9.028;2022-08-04T17:57:00;9.53;;;9.03;;
3789;SDS011;1910;49.042;9.028;2022-08-04T17:59:42;9.80;;;8.90;;
3789;SDS011;1910;49.042;9.028;2022-08-04T18:02:09;9.53;;;8.00;;
3789;SDS011;1910;49.042;9.028;2022-08-04T18:04:45;8.73;;;8.13;;
3789;SDS011;1910;49.042;9.028;2022-08-04T18:07:23;8.73;;;8.20;;
3789;SDS011;1910;49.042;9.028;2022-08-04T18:09:59;8.17;;;7.57;;
3789;SDS011;1910;49.042;9.028;2022-08-04T18:12:28;13.23;;;8.37;;
3789;SDS011;1910;49.042;9.028;2022-08-04T18:15:34;7.83;;;7.33;;
3789;SDS011;1910;49.042;9.028;2022-08-04T18:21:42;7.23;;;6.63;;
3789;SDS011;1910;49.042;9.028;2022-08-04T18:31:16;6.77;;;6.33;;
3789;SDS011;1910;49.042;9.028;2022-08-04T18:34:22;7.53;;;5.50;;
3789;SDS011;1910;49.042;9.028;2022-08-04T18:36:59;7.60;;;5.20;;
3789;SDS011;1910;49.042;9.028;2022-08-04T18:39:29;9.73;;;5.33;;
3789;SDS011;1910;49.042;9.028;2022-08-04T18:41:56;5.63;;;5.20;;
3789;SDS011;1910;49.042;9.028;2022-08-04T18:48:03;7.27;;;5.33;;
3789;SDS011;1910;49.042;9.028;2022-08-04T18:50:35;5.47;;;4.97;;
3789;SDS011;1910;49.042;9.028;2022-08-04T18:53:05;8.47;;;4.80;;
3789;SDS011;1910;49.042;9.028;2022-08-04T19:06:09;9.20;;;4.63;;
3789;SDS011;1910;49.042;9.028;2022-08-04T19:08:49;4.97;;;4.57;;
3789;SDS011;1910;49.042;9.028;2022-08-04T19:21:09;4.83;;;4.43;;
3789;SDS011;1910;49.042;9.028;2022-08-04T19:23:44;4.60;;;4.10;;
3789;SDS011;1910;49.042;9.028;2022-08-04T19:26:12;7.73;;;4.40;;
3789;SDS011;1910;49.042;9.028;2022-08-04T19:28:41;5.67;;;5.00;;
3789;SDS011;1910;49.042;9.028;2022-08-04T19:31:35;4.40;;;3.70;;
3789;SDS011;1910;49.042;9.028;2022-08-04T19:34:04;4.43;;;4.00;;
3789;SDS011;1910;49.042;9.028;2022-08-04T19:36:37;4.30;;;4.00;;
3789;SDS011;1910;49.042;9.028;2022-08-04T19:42:19;4.20;;;3.80;;
3789;SDS011;1910;49.042;9.028;2022-08-04T19:44:53;4.20;;;3.80;;
3789;SDS011;1910;49.042;9.028;2022-08-04T19:47:28;8.03;;;4.10;;
3789;SDS011;1910;49.042;9.028;2022-08-04T19:50:24;3.87;;;3.57;;
3789;SDS011;1910;49.042;9.028;2022-08-04T19:52:58;4.00;;;3.70;;
3789;SDS011;1910;49.042;9.028;2022-08-04T19:58:08;4.20;;;3.70;;
3789;SDS011;1910;49.042;9.028;2022-08-04T20:03:37;4.43;;;4.13;;
3789;SDS011;1910;49.042;9.028;2022-08-04T20:06:12;4.53;;;3.77;;
3789;SDS011;1910;49.042;9.028;2022-08-04T20:11:32;4.00;;;3.60;;
3789;SDS011;1910;49.042;9.028;2022-08-04T20:14:20;4.63;;;3.47;;
3789;SDS011;1910;49.042;9.028;2022-08-04T20:17:24;4.80;;;4.27;;
3789;SDS011;1910;49.042;9.028;2022-08-04T20:23:40;7.17;;;3.80;;
3789;SDS011;1910;49.042;9.028;2022-08-04T20:27:15;4.13;;;3.73;;
3789;SDS011;1910;49.042;9.028;2022-08-04T20:30:01;4.73;;;3.57;;
3789;SDS011;1910;49.042;9.028;2022-08-04T20:32:36;3.90;;;3.50;;
3789;SDS011;1910;49.042;9.028;2022-08-04T20:35:09;5.70;;;4.20;;
3789;SDS011;1910;49.042;9.028;2022-08-04T20:37:46;3.60;;;3.30;;
3789;SDS011;1910;49.042;9.028;2022-08-04T20:40:51;7.27;;;4.00;;
3789;SDS011;1910;49.042;9.028;2022-08-04T20:43:59;4.77;;;4.37;;
3789;SDS011;1910;49.042;9.028;2022-08-04T20:46:31;4.00;;;3.70;;
3789;SDS011;1910;49.042;9.028;2022-08-04T20:49:16;3.77;;;3.13;;
3789;SDS011;1910;49.042;9.028;2022-08-04T20:51:41;5.50;;;3.70;;
3789;SDS011;1910;49.042;9.028;2022-08-04T21:00:55;4.77;;;3.67;;
3789;SDS011;1910;49.042;9.028;2022-08-04T21:03:21;3.70;;;3.40;;
3789;SDS011;1910;49.042;9.028;2022-08-04T21:05:46;3.90;;;3.60;;
3789;SDS011;1910;49.042;9.028;2022-08-04T21:08:12;6.63;;;3.47;;